sensor_id;sensor_type;location;lat;lon;timestamp;P1;durP1;ratioP1;P2;durP2;ratioP2
14203;SDS011;7185;51.854;6.622;2022-08-24T00:01:16;13.02;;;6.68;;
14203;SDS011;7185;51.854;6.622;2022-08-24T00:03:48;11.82;;;5.97;;
14203;SDS011;7185;51.854;6.622;2022-08-24T00:06:22;11.27;;;6.43;;
14203;SDS011;7185;51.854;6.622;2022-08-24T00:08:56;10.55;;;6.22;;
14203;SDS011;7185;51.854;6.622;2022-08-24T00:11:28;13.10;;;7.07;;
14203;SDS011;7185;51.854;6.622;2022-08-24T00:14:00;11.48;;;7.05;;
14203;SDS011;7185;51.854;6.622;2022-08-24T00:16:31;14.02;;;8.23;;
14203;SDS011;7185;51.854;6.622;2022-08-24T00:19:04;14.27;;;8.57;;
14203;SDS011;7185;51.854;6.622;2022-08-24T00:21:37;12.20;;;8.15;;
14203;SDS011;7185;51.854;6.622;2022-08-24T00:24:09;15.50;;;8.40;;
14203;SDS011;7185;51.854;6.622;2022-08-24T00:26:41;11.07;;;6.97;;
14203;SDS011;7185;51.854;6.622;2022-08-24T00:29:12;10.80;;;7.35;;
14203;SDS011;7185;51.854;6.622;2022-08-24T00:31:44;11.90;;;7.38;;
14203;SDS011;7185;51.854;6.622;2022-08-24T00:34:16;11.38;;;7.10;;
14203;SDS011;7185;51.854;6.622;2022-08-24T00:36:49;11.30;;;6.78;;
14203;SDS011;7185;51.854;6.622;2022-08-24T00:39:23;12.18;;;7.00;;
14203;SDS011;7185;51.854;6.622;2022-08-24T00:41:55;10.60;;;6.45;;
14203;SDS011;7185;51.854;6.622;2022-08-24T00:44:27;10.20;;;6.00;;
14203;SDS011;7185;51.854;6.622;2022-08-24T00:47:00;8.93;;;5.90;;
14203;SDS011;7185;51.854;6.622;2022-08-24T00:49:36;13.65;;;6.03;;
14203;SDS011;7185;51.854;6.622;2022-08-24T00:52:14;11.35;;;6.47;;
14203;SDS011;7185;51.854;6.622;2022-08-24T00:54:51;9.73;;;6.70;;
14203;SDS011;7185;51.854;6.622;2022-08-24T00:57:26;11.95;;;7.75;;
14203;SDS011;7185;51.854;6.622;2022-08-24T01:00:03;11.30;;;7.10;;
14203;SDS011;7185;51.854;6.622;2022-08-24T01:02:40;11.68;;;6.43;;
14203;SDS011;7185;51.854;6.622;2022-08-24T01:05:15;9.65;;;6.35;;
14203;SDS011;7185;51.854;6.622;2022-08-24T01:07:49;8.02;;;6.35;;
14203;SDS011;7185;51.854;6.622;2022-08-24T01:10:22;12.07;;;6.28;;
14203;SDS011;7185;51.854;6.622;2022-08-24T01:12:57;11.27;;;6.22;;
14203;SDS011;7185;51.854;6.622;2022-08-24T01:15:33;11.85;;;7.00;;
14203;SDS011;7185;51.854;6.622;2022-08-24T01:18:07;12.77;;;6.50;;
14203;SDS011;7185;51.854;6.622;2022-08-24T01:21:01;10.57;;;5.85;;
14203;SDS011;7185;51.854;6.622;2022-08-24T01:23:39;10.18;;;6.43;;
14203;SDS011;7185;51.854;6.622;2022-08-24T01:26:14;11.05;;;6.53;;
14203;SDS011;7185;51.854;6.622;2022-08-24T01:28:49;11.50;;;7.53;;
14203;SDS011;7185;51.854;6.622;2022-08-24T01:31:25;9.50;;;7.00;;
14203;SDS011;7185;51.854;6.622;2022-08-24T01:33:57;10.98;;;6.45;;
14203;SDS011;7185;51.854;6.622;2022-08-24T01:36:30;10.35;;;6.18;;
14203;SDS011;7185;51.854;6.622;2022-08-24T01:39:05;11.70;;;7.28;;
14203;SDS011;7185;51.854;6.622;2022-08-24T01:41:40;10.50;;;7.57;;
14203;SDS011;7185;51.854;6.622;2022-08-24T01:44:12;16.80;;;7.85;;
14203;SDS011;7185;51.854;6.622;2022-08-24T01:46:45;9.80;;;6.97;;
14203;SDS011;7185;51.854;6.622;2022-08-24T01:49:18;14.45;;;7.35;;
14203;SDS011;7185;51.854;6.622;2022-08-24T01:51:52;11.80;;;7.97;;
14203;SDS011;7185;51.854;6.622;2022-08-24T01:54:25;11.60;;;7.07;;
14203;SDS011;7185;51.854;6.622;2022-08-24T01:56:58;14.43;;;8.13;;
14203;SDS011;7185;51.854;6.622;2022-08-24T01:59:30;14.05;;;8.20;;
14203;SDS011;7185;51.854;6.622;2022-08-24T02:02:03;12.02;;;8.48;;
14203;SDS011;7185;51.854;6.622;2022-08-24T02:04:39;12.95;;;8.90;;
14203;SDS011;7185;51.854;6.622;2022-08-24T02:07:11;14.43;;;9.23;;
14203;SDS011;7185;51.854;6.622;2022-08-24T02:09:44;12.55;;;8.63;;
14203;SDS011;7185;51.854;6.622;2022-08-24T02:12:16;18.98;;;8.23;;
14203;SDS011;7185;51.854;6.622;2022-08-24T02:14:48;12.50;;;7.32;;
14203;SDS011;7185;51.854;6.622;2022-08-24T02:17:20;10.93;;;7.68;;
14203;SDS011;7185;51.854;6.622;2022-08-24T02:19:52;10.80;;;7.50;;
14203;SDS011;7185;51.854;6.622;2022-08-24T02:22:23;14.05;;;8.02;;
14203;SDS011;7185;51.854;6.622;2022-08-24T02:24:57;12.60;;;8.20;;
14203;SDS011;7185;51.854;6.622;2022-08-24T02:27:28;11.07;;;7.90;;
14203;SDS011;7185;51.854;6.622;2022-08-24T02:30:00;11.18;;;7.72;;
14203;SDS011;7185;51.854;6.622;2022-08-24T02:32:32;10.43;;;7.57;;
14203;SDS011;7185;51.854;6.622;2022-08-24T02:35:04;13.65;;;8.52;;
14203;SDS011;7185;51.854;6.622;2022-08-24T02:37:36;14.05;;;8.73;;
14203;SDS011;7185;51.854;6.622;2022-08-24T02:40:10;18.13;;;8.90;;
14203;SDS011;7185;51.854;6.622;2022-08-24T02:42:43;17.58;;;10.65;;
14203;SDS011;7185;51.854;6.622;2022-08-24T02:45:15;17.50;;;10.55;;
14203;SDS011;7185;51.854;6.622;2022-08-24T02:47:47;14.10;;;10.32;;
14203;SDS011;7185;51.854;6.622;2022-08-24T02:50:18;17.38;;;10.90;;
14203;SDS011;7185;51.854;6.622;2022-08-24T02:52:50;15.75;;;9.18;;
14203;SDS011;7185;51.854;6.622;2022-08-24T02:55:24;14.98;;;10.00;;
14203;SDS011;7185;51.854;6.622;2022-08-24T02:57:56;15.60;;;10.90;;
14203;SDS011;7185;51.854;6.622;2022-08-24T03:00:28;15.25;;;12.55;;
14203;SDS011;7185;51.854;6.622;2022-08-24T03:02:59;20.05;;;12.75;;
14203;SDS011;7185;51.854;6.622;2022-08-24T03:05:31;13.77;;;9.93;;
14203;SDS011;7185;51.854;6.622;2022-08-24T03:08:03;16.23;;;11.35;;
14203;SDS011;7185;51.854;6.622;2022-08-24T03:10:37;17.95;;;11.15;;
14203;SDS011;7185;51.854;6.622;2022-08-24T03:13:09;20.35;;;12.15;;
14203;SDS011;7185;51.854;6.622;2022-08-24T03:15:40;16.67;;;11.93;;
14203;SDS011;7185;51.854;6.622;2022-08-24T03:18:13;19.42;;;13.10;;
14203;SDS011;7185;51.854;6.622;2022-08-24T03:20:45;19.25;;;13.43;;
14203;SDS011;7185;51.854;6.622;2022-08-24T03:23:16;18.35;;;13.98;;
14203;SDS011;7185;51.854;6.622;2022-08-24T03:25:49;14.85;;;11.52;;
14203;SDS011;7185;51.854;6.622;2022-08-24T03:28:22;15.63;;;10.52;;
14203;SDS011;7185;51.854;6.622;2022-08-24T03:30:55;26.77;;;12.70;;
14203;SDS011;7185;51.854;6.622;2022-08-24T03:33:26;14.30;;;11.27;;
14203;SDS011;7185;51.854;6.622;2022-08-24T03:35:59;15.25;;;10.65;;
14203;SDS011;7185;51.854;6.622;2022-08-24T03:38:30;18.23;;;12.68;;
14203;SDS011;7185;51.854;6.622;2022-08-24T03:41:03;19.27;;;12.05;;
14203;SDS011;7185;51.854;6.622;2022-08-24T03:43:36;18.67;;;12.80;;
14203;SDS011;7185;51.854;6.622;2022-08-24T03:46:18;18.52;;;13.32;;
14203;SDS011;7185;51.854;6.622;2022-08-24T03:48:51;18.25;;;12.73;;
14203;SDS011;7185;51.854;6.622;2022-08-24T03:51:24;17.70;;;13.10;;
14203;SDS011;7185;51.854;6.622;2022-08-24T03:53:57;18.70;;;12.88;;
14203;SDS011;7185;51.854;6.622;2022-08-24T03:56:32;19.55;;;13.85;;
14203;SDS011;7185;51.854;6.622;2022-08-24T03:59:04;18.90;;;12.40;;
14203;SDS011;7185;51.854;6.622;2022-08-24T04:01:36;18.08;;;12.38;;
14203;SDS011;7185;51.854;6.622;2022-08-24T04:04:09;15.38;;;12.35;;
14203;SDS011;7185;51.854;6.622;2022-08-24T04:06:41;16.65;;;12.38;;
14203;SDS011;7185;51.854;6.622;2022-08-24T04:09:13;16.55;;;11.57;;
14203;SDS011;7185;51.854;6.622;2022-08-24T04:11:47;17.40;;;12.18;;
14203;SDS011;7185;51.854;6.622;2022-08-24T04:14:19;18.48;;;12.57;;
14203;SDS011;7185;51.854;6.622;2022-08-24T04:16:51;16.98;;;13.30;;
14203;SDS011;7185;51.854;6.622;2022-08-24T04:19:23;16.80;;;12.73;;
14203;SDS011;7185;51.854;6.622;2022-08-24T04:21:55;19.95;;;12.63;;
14203;SDS011;7185;51.854;6.622;2022-08-24T04:24:28;15.90;;;12.23;;
14203;SDS011;7185;51.854;6.622;2022-08-24T04:27:02;18.65;;;13.35;;
14203;SDS011;7185;51.854;6.622;2022-08-24T04:29:34;17.95;;;12.73;;
14203;SDS011;7185;51.854;6.622;2022-08-24T04:32:05;16.80;;;12.43;;
14203;SDS011;7185;51.854;6.622;2022-08-24T04:34:37;16.45;;;12.45;;
14203;SDS011;7185;51.854;6.622;2022-08-24T04:37:09;17.25;;;12.70;;
14203;SDS011;7185;51.854;6.622;2022-08-24T04:39:42;23.38;;;13.50;;
14203;SDS011;7185;51.854;6.622;2022-08-24T04:42:15;18.92;;;14.30;;
14203;SDS011;7185;51.854;6.622;2022-08-24T04:44:49;23.45;;;14.65;;
14203;SDS011;7185;51.854;6.622;2022-08-24T04:47:20;17.80;;;13.88;;
14203;SDS011;7185;51.854;6.622;2022-08-24T04:49:53;20.40;;;14.35;;
14203;SDS011;7185;51.854;6.622;2022-08-24T04:52:25;20.73;;;14.05;;
14203;SDS011;7185;51.854;6.622;2022-08-24T04:54:56;16.85;;;12.75;;
14203;SDS011;7185;51.854;6.622;2022-08-24T04:57:29;19.20;;;14.13;;
14203;SDS011;7185;51.854;6.622;2022-08-24T05:00:09;21.45;;;12.95;;
14203;SDS011;7185;51.854;6.622;2022-08-24T05:02:41;15.73;;;12.63;;
14203;SDS011;7185;51.854;6.622;2022-08-24T05:05:13;16.20;;;12.30;;
14203;SDS011;7185;51.854;6.622;2022-08-24T05:07:44;20.25;;;13.65;;
14203;SDS011;7185;51.854;6.622;2022-08-24T05:10:19;16.60;;;11.55;;
14203;SDS011;7185;51.854;6.622;2022-08-24T05:12:53;18.33;;;12.60;;
14203;SDS011;7185;51.854;6.622;2022-08-24T05:15:25;19.20;;;12.45;;
14203;SDS011;7185;51.854;6.622;2022-08-24T05:17:57;16.60;;;11.48;;
14203;SDS011;7185;51.854;6.622;2022-08-24T05:20:28;17.98;;;12.85;;
14203;SDS011;7185;51.854;6.622;2022-08-24T05:23:00;19.48;;;12.25;;
14203;SDS011;7185;51.854;6.622;2022-08-24T05:25:32;19.00;;;12.45;;
14203;SDS011;7185;51.854;6.622;2022-08-24T05:28:05;14.98;;;10.90;;
14203;SDS011;7185;51.854;6.622;2022-08-24T05:30:37;20.17;;;13.38;;
14203;SDS011;7185;51.854;6.622;2022-08-24T05:33:09;24.30;;;13.20;;
14203;SDS011;7185;51.854;6.622;2022-08-24T05:35:41;16.05;;;11.95;;
14203;SDS011;7185;51.854;6.622;2022-08-24T05:38:12;19.25;;;12.45;;
14203;SDS011;7185;51.854;6.622;2022-08-24T05:40:44;22.38;;;12.25;;
14203;SDS011;7185;51.854;6.622;2022-08-24T05:43:17;17.33;;;12.23;;
14203;SDS011;7185;51.854;6.622;2022-08-24T05:45:49;27.02;;;17.30;;
14203;SDS011;7185;51.854;6.622;2022-08-24T05:52:15;25.00;;;17.75;;
14203;SDS011;7185;51.854;6.622;2022-08-24T06:30:38;24.67;;;17.30;;
14203;SDS011;7185;51.854;6.622;2022-08-24T06:46:38;27.45;;;18.05;;
14203;SDS011;7185;51.854;6.622;2022-08-24T06:49:10;23.00;;;17.20;;
14203;SDS011;7185;51.854;6.622;2022-08-24T06:51:42;24.77;;;14.70;;
14203;SDS011;7185;51.854;6.622;2022-08-24T06:54:14;23.08;;;15.43;;
14203;SDS011;7185;51.854;6.622;2022-08-24T06:56:45;25.23;;;14.98;;
14203;SDS011;7185;51.854;6.622;2022-08-24T06:59:17;18.75;;;14.50;;
14203;SDS011;7185;51.854;6.622;2022-08-24T07:01:51;26.35;;;15.10;;
14203;SDS011;7185;51.854;6.622;2022-08-24T07:04:23;22.95;;;14.57;;
14203;SDS011;7185;51.854;6.622;2022-08-24T07:06:56;17.27;;;11.25;;
14203;SDS011;7185;51.854;6.622;2022-08-24T07:09:29;20.73;;;12.90;;
14203;SDS011;7185;51.854;6.622;2022-08-24T07:12:02;21.17;;;12.57;;
14203;SDS011;7185;51.854;6.622;2022-08-24T07:14:34;17.23;;;11.00;;
14203;SDS011;7185;51.854;6.622;2022-08-24T07:17:07;17.23;;;10.95;;
14203;SDS011;7185;51.854;6.622;2022-08-24T07:19:38;19.38;;;11.05;;
14203;SDS011;7185;51.854;6.622;2022-08-24T07:22:10;17.52;;;11.32;;
14203;SDS011;7185;51.854;6.622;2022-08-24T07:24:43;16.85;;;11.05;;
14203;SDS011;7185;51.854;6.622;2022-08-24T07:27:15;20.00;;;11.27;;
14203;SDS011;7185;51.854;6.622;2022-08-24T07:29:47;17.38;;;10.55;;
14203;SDS011;7185;51.854;6.622;2022-08-24T07:32:20;13.40;;;9.48;;
14203;SDS011;7185;51.854;6.622;2022-08-24T07:34:52;13.93;;;8.93;;
14203;SDS011;7185;51.854;6.622;2022-08-24T07:37:23;16.08;;;9.85;;
14203;SDS011;7185;51.854;6.622;2022-08-24T07:39:55;17.25;;;9.98;;
14203;SDS011;7185;51.854;6.622;2022-08-24T07:42:27;13.18;;;8.90;;
14203;SDS011;7185;51.854;6.622;2022-08-24T07:44:58;12.95;;;7.07;;
14203;SDS011;7185;51.854;6.622;2022-08-24T07:47:32;13.38;;;7.40;;
14203;SDS011;7185;51.854;6.622;2022-08-24T07:50:04;10.45;;;6.30;;
14203;SDS011;7185;51.854;6.622;2022-08-24T07:52:36;13.43;;;6.60;;
14203;SDS011;7185;51.854;6.622;2022-08-24T07:55:09;12.50;;;7.40;;
14203;SDS011;7185;51.854;6.622;2022-08-24T08:00:16;9.70;;;4.63;;
14203;SDS011;7185;51.854;6.622;2022-08-24T08:02:51;8.07;;;4.18;;
14203;SDS011;7185;51.854;6.622;2022-08-24T08:05:22;9.20;;;4.40;;
14203;SDS011;7185;51.854;6.622;2022-08-24T08:07:55;8.38;;;4.93;;
14203;SDS011;7185;51.854;6.622;2022-08-24T08:10:26;8.57;;;5.43;;
14203;SDS011;7185;51.854;6.622;2022-08-24T08:13:00;8.30;;;4.60;;
14203;SDS011;7185;51.854;6.622;2022-08-24T08:15:31;8.13;;;4.85;;
14203;SDS011;7185;51.854;6.622;2022-08-24T08:18:05;8.95;;;4.20;;
14203;SDS011;7185;51.854;6.622;2022-08-24T08:20:37;6.97;;;3.47;;
14203;SDS011;7185;51.854;6.622;2022-08-24T08:23:10;5.22;;;3.65;;
14203;SDS011;7185;51.854;6.622;2022-08-24T08:25:59;8.02;;;3.53;;
14203;SDS011;7185;51.854;6.622;2022-08-24T08:28:31;14.80;;;3.95;;
14203;SDS011;7185;51.854;6.622;2022-08-24T08:31:03;8.48;;;2.90;;
14203;SDS011;7185;51.854;6.622;2022-08-24T08:33:37;11.48;;;3.22;;
14203;SDS011;7185;51.854;6.622;2022-08-24T08:36:09;4.60;;;2.20;;
14203;SDS011;7185;51.854;6.622;2022-08-24T08:38:44;8.38;;;2.50;;
14203;SDS011;7185;51.854;6.622;2022-08-24T08:41:29;4.55;;;2.60;;
14203;SDS011;7185;51.854;6.622;2022-08-24T08:44:37;8.48;;;2.60;;
14203;SDS011;7185;51.854;6.622;2022-08-24T08:47:43;6.65;;;2.60;;
14203;SDS011;7185;51.854;6.622;2022-08-24T08:50:45;4.40;;;2.15;;
14203;SDS011;7185;51.854;6.622;2022-08-24T08:53:42;4.30;;;2.10;;
14203;SDS011;7185;51.854;6.622;2022-08-24T08:56:33;3.65;;;2.10;;
14203;SDS011;7185;51.854;6.622;2022-08-24T08:59:10;4.68;;;2.03;;
14203;SDS011;7185;51.854;6.622;2022-08-24T09:01:51;2.25;;;1.55;;
14203;SDS011;7185;51.854;6.622;2022-08-24T09:04:46;3.05;;;1.38;;
14203;SDS011;7185;51.854;6.622;2022-08-24T09:07:38;3.95;;;1.40;;
14203;SDS011;7185;51.854;6.622;2022-08-24T09:10:30;3.47;;;1.38;;
14203;SDS011;7185;51.854;6.622;2022-08-24T09:13:15;6.03;;;2.47;;
14203;SDS011;7185;51.854;6.622;2022-08-24T09:16:01;5.20;;;1.40;;
14203;SDS011;7185;51.854;6.622;2022-08-24T09:18:47;6.78;;;1.58;;
14203;SDS011;7185;51.854;6.622;2022-08-24T09:21:29;5.82;;;1.63;;
14203;SDS011;7185;51.854;6.622;2022-08-24T09:24:19;3.60;;;1.38;;
14203;SDS011;7185;51.854;6.622;2022-08-24T09:27:03;2.83;;;1.40;;
14203;SDS011;7185;51.854;6.622;2022-08-24T09:29:47;5.78;;;1.52;;
14203;SDS011;7185;51.854;6.622;2022-08-24T09:32:36;5.20;;;1.50;;
14203;SDS011;7185;51.854;6.622;2022-08-24T09:35:31;3.42;;;1.25;;
14203;SDS011;7185;51.854;6.622;2022-08-24T09:38:06;5.68;;;1.30;;
14203;SDS011;7185;51.854;6.622;2022-08-24T09:40:58;3.95;;;1.50;;
14203;SDS011;7185;51.854;6.622;2022-08-24T09:43:55;3.85;;;1.40;;
14203;SDS011;7185;51.854;6.622;2022-08-24T09:50:00;4.22;;;1.48;;
14203;SDS011;7185;51.854;6.622;2022-08-24T09:53:02;4.00;;;1.48;;
14203;SDS011;7185;51.854;6.622;2022-08-24T09:56:05;4.18;;;1.52;;
14203;SDS011;7185;51.854;6.622;2022-08-24T09:58:57;3.58;;;1.25;;
14203;SDS011;7185;51.854;6.622;2022-08-24T10:01:44;2.30;;;1.08;;
14203;SDS011;7185;51.854;6.622;2022-08-24T10:04:27;3.70;;;1.10;;
14203;SDS011;7185;51.854;6.622;2022-08-24T10:07:06;4.45;;;1.10;;
14203;SDS011;7185;51.854;6.622;2022-08-24T10:12:54;2.22;;;1.10;;
14203;SDS011;7185;51.854;6.622;2022-08-24T10:15:35;3.08;;;1.13;;
14203;SDS011;7185;51.854;6.622;2022-08-24T10:18:16;5.28;;;1.27;;
14203;SDS011;7185;51.854;6.622;2022-08-24T10:21:17;1.60;;;1.00;;
14203;SDS011;7185;51.854;6.622;2022-08-24T10:24:01;2.28;;;1.10;;
14203;SDS011;7185;51.854;6.622;2022-08-24T10:26:48;4.18;;;1.33;;
14203;SDS011;7185;51.854;6.622;2022-08-24T10:29:46;4.50;;;1.25;;
14203;SDS011;7185;51.854;6.622;2022-08-24T10:32:37;5.40;;;1.10;;
14203;SDS011;7185;51.854;6.622;2022-08-24T10:35:21;2.85;;;1.25;;
14203;SDS011;7185;51.854;6.622;2022-08-24T10:38:04;7.28;;;1.38;;
14203;SDS011;7185;51.854;6.622;2022-08-24T10:41:09;4.65;;;1.48;;
14203;SDS011;7185;51.854;6.622;2022-08-24T10:44:08;5.13;;;1.33;;
14203;SDS011;7185;51.854;6.622;2022-08-24T10:47:04;4.50;;;1.48;;
14203;SDS011;7185;51.854;6.622;2022-08-24T10:55:43;4.28;;;1.20;;
14203;SDS011;7185;51.854;6.622;2022-08-24T11:01:29;3.88;;;1.52;;
14203;SDS011;7185;51.854;6.622;2022-08-24T11:04:06;3.55;;;1.52;;
14203;SDS011;7185;51.854;6.622;2022-08-24T11:06:40;4.38;;;1.50;;
14203;SDS011;7185;51.854;6.622;2022-08-24T11:09:15;2.72;;;1.38;;
14203;SDS011;7185;51.854;6.622;2022-08-24T11:11:48;3.42;;;1.60;;
14203;SDS011;7185;51.854;6.622;2022-08-24T11:14:24;3.03;;;1.50;;
14203;SDS011;7185;51.854;6.622;2022-08-24T11:17:12;4.97;;;1.60;;
14203;SDS011;7185;51.854;6.622;2022-08-24T11:19:48;3.72;;;1.50;;
14203;SDS011;7185;51.854;6.622;2022-08-24T11:22:23;5.00;;;1.53;;
14203;SDS011;7185;51.854;6.622;2022-08-24T11:25:00;3.95;;;1.50;;
14203;SDS011;7185;51.854;6.622;2022-08-24T11:27:38;3.88;;;1.20;;
14203;SDS011;7185;51.854;6.622;2022-08-24T11:30:14;4.38;;;1.42;;
14203;SDS011;7185;51.854;6.622;2022-08-24T11:32:54;5.93;;;1.50;;
14203;SDS011;7185;51.854;6.622;2022-08-24T11:35:34;6.85;;;1.60;;
14203;SDS011;7185;51.854;6.622;2022-08-24T11:38:13;3.20;;;1.35;;
14203;SDS011;7185;51.854;6.622;2022-08-24T11:40:47;3.05;;;1.60;;
14203;SDS011;7185;51.854;6.622;2022-08-24T11:43:25;6.07;;;1.60;;
14203;SDS011;7185;51.854;6.622;2022-08-24T11:46:07;2.63;;;1.48;;
14203;SDS011;7185;51.854;6.622;2022-08-24T11:48:49;6.80;;;1.65;;
14203;SDS011;7185;51.854;6.622;2022-08-24T11:51:35;3.90;;;1.40;;
14203;SDS011;7185;51.854;6.622;2022-08-24T11:54:17;5.95;;;1.70;;
14203;SDS011;7185;51.854;6.622;2022-08-24T11:57:01;4.53;;;1.67;;
14203;SDS011;7185;51.854;6.622;2022-08-24T11:59:40;4.22;;;1.48;;
14203;SDS011;7185;51.854;6.622;2022-08-24T12:02:22;5.35;;;1.88;;
14203;SDS011;7185;51.854;6.622;2022-08-24T12:05:00;2.63;;;1.50;;
14203;SDS011;7185;51.854;6.622;2022-08-24T12:07:44;3.78;;;1.55;;
14203;SDS011;7185;51.854;6.622;2022-08-24T12:10:24;3.30;;;1.75;;
14203;SDS011;7185;51.854;6.622;2022-08-24T12:13:04;3.78;;;1.58;;
14203;SDS011;7185;51.854;6.622;2022-08-24T12:15:41;6.00;;;1.45;;
14203;SDS011;7185;51.854;6.622;2022-08-24T12:18:23;3.05;;;1.40;;
14203;SDS011;7185;51.854;6.622;2022-08-24T12:20:58;5.22;;;1.50;;
14203;SDS011;7185;51.854;6.622;2022-08-24T12:23:33;5.43;;;1.48;;
14203;SDS011;7185;51.854;6.622;2022-08-24T12:26:09;5.00;;;1.67;;
14203;SDS011;7185;51.854;6.622;2022-08-24T12:28:45;2.50;;;1.50;;
14203;SDS011;7185;51.854;6.622;2022-08-24T12:31:20;3.22;;;1.55;;
14203;SDS011;7185;51.854;6.622;2022-08-24T12:33:58;3.25;;;1.50;;
14203;SDS011;7185;51.854;6.622;2022-08-24T12:36:35;2.55;;;1.60;;
14203;SDS011;7185;51.854;6.622;2022-08-24T12:39:13;3.22;;;1.25;;
14203;SDS011;7185;51.854;6.622;2022-08-24T12:41:56;2.90;;;1.40;;
14203;SDS011;7185;51.854;6.622;2022-08-24T12:44:36;3.15;;;1.40;;
14203;SDS011;7185;51.854;6.622;2022-08-24T12:47:17;3.60;;;1.42;;
14203;SDS011;7185;51.854;6.622;2022-08-24T12:49:53;3.65;;;1.48;;
14203;SDS011;7185;51.854;6.622;2022-08-24T12:52:42;6.03;;;1.40;;
14203;SDS011;7185;51.854;6.622;2022-08-24T12:58:31;3.85;;;1.20;;
14203;SDS011;7185;51.854;6.622;2022-08-24T13:01:16;4.80;;;1.70;;
14203;SDS011;7185;51.854;6.622;2022-08-24T13:04:01;2.88;;;1.40;;
14203;SDS011;7185;51.854;6.622;2022-08-24T13:06:37;5.82;;;1.38;;
14203;SDS011;7185;51.854;6.622;2022-08-24T13:09:14;5.18;;;1.42;;
14203;SDS011;7185;51.854;6.622;2022-08-24T13:11:59;2.60;;;1.08;;
14203;SDS011;7185;51.854;6.622;2022-08-24T13:15:18;2.50;;;1.20;;
14203;SDS011;7185;51.854;6.622;2022-08-24T13:17:55;4.03;;;1.40;;
14203;SDS011;7185;51.854;6.622;2022-08-24T13:20:55;4.07;;;1.50;;
14203;SDS011;7185;51.854;6.622;2022-08-24T13:23:25;6.72;;;1.63;;
14203;SDS011;7185;51.854;6.622;2022-08-24T13:25:57;2.50;;;1.33;;
14203;SDS011;7185;51.854;6.622;2022-08-24T13:28:34;4.78;;;1.98;;
14203;SDS011;7185;51.854;6.622;2022-08-24T13:31:13;3.83;;;1.25;;
14203;SDS011;7185;51.854;6.622;2022-08-24T13:33:49;2.95;;;1.40;;
14203;SDS011;7185;51.854;6.622;2022-08-24T13:39:36;3.03;;;1.55;;
14203;SDS011;7185;51.854;6.622;2022-08-24T13:42:22;5.82;;;1.75;;
14203;SDS011;7185;51.854;6.622;2022-08-24T13:45:17;3.20;;;1.60;;
14203;SDS011;7185;51.854;6.622;2022-08-24T13:47:57;3.55;;;1.90;;
14203;SDS011;7185;51.854;6.622;2022-08-24T13:50:41;6.90;;;1.70;;
14203;SDS011;7185;51.854;6.622;2022-08-24T13:53:37;2.63;;;1.30;;
14203;SDS011;7185;51.854;6.622;2022-08-24T13:59:55;2.35;;;1.30;;
14203;SDS011;7185;51.854;6.622;2022-08-24T14:02:37;3.42;;;1.48;;
14203;SDS011;7185;51.854;6.622;2022-08-24T14:05:24;2.50;;;1.33;;
14203;SDS011;7185;51.854;6.622;2022-08-24T14:08:06;3.55;;;1.60;;
14203;SDS011;7185;51.854;6.622;2022-08-24T14:10:50;3.67;;;1.48;;
14203;SDS011;7185;51.854;6.622;2022-08-24T14:13:33;3.58;;;1.27;;
14203;SDS011;7185;51.854;6.622;2022-08-24T14:16:24;5.53;;;1.35;;
14203;SDS011;7185;51.854;6.622;2022-08-24T14:19:30;3.80;;;1.50;;
14203;SDS011;7185;51.854;6.622;2022-08-24T14:22:16;3.03;;;1.55;;
14203;SDS011;7185;51.854;6.622;2022-08-24T14:25:04;3.90;;;1.50;;
14203;SDS011;7185;51.854;6.622;2022-08-24T14:27:46;4.30;;;1.65;;
14203;SDS011;7185;51.854;6.622;2022-08-24T14:30:36;3.22;;;2.00;;
14203;SDS011;7185;51.854;6.622;2022-08-24T14:33:16;3.30;;;1.70;;
14203;SDS011;7185;51.854;6.622;2022-08-24T14:36:09;4.75;;;1.50;;
14203;SDS011;7185;51.854;6.622;2022-08-24T14:38:50;3.67;;;1.90;;
14203;SDS011;7185;51.854;6.622;2022-08-24T14:41:32;2.30;;;1.30;;
14203;SDS011;7185;51.854;6.622;2022-08-24T14:44:18;3.33;;;1.75;;
14203;SDS011;7185;51.854;6.622;2022-08-24T14:47:00;2.87;;;1.60;;
14203;SDS011;7185;51.854;6.622;2022-08-24T14:49:40;3.28;;;1.75;;
14203;SDS011;7185;51.854;6.622;2022-08-24T14:52:22;4.00;;;1.60;;
14203;SDS011;7185;51.854;6.622;2022-08-24T14:55:11;3.33;;;1.42;;
14203;SDS011;7185;51.854;6.622;2022-08-24T14:57:54;3.03;;;1.60;;
14203;SDS011;7185;51.854;6.622;2022-08-24T15:00:53;3.80;;;1.65;;
14203;SDS011;7185;51.854;6.622;2022-08-24T15:03:46;4.22;;;1.95;;
14203;SDS011;7185;51.854;6.622;2022-08-24T15:06:31;3.13;;;1.63;;
14203;SDS011;7185;51.854;6.622;2022-08-24T15:09:16;2.88;;;1.45;;
14203;SDS011;7185;51.854;6.622;2022-08-24T15:11:49;7.00;;;1.55;;
14203;SDS011;7185;51.854;6.622;2022-08-24T15:14:26;6.38;;;1.60;;
14203;SDS011;7185;51.854;6.622;2022-08-24T15:17:06;6.35;;;1.85;;
14203;SDS011;7185;51.854;6.622;2022-08-24T15:19:43;4.05;;;1.58;;
14203;SDS011;7185;51.854;6.622;2022-08-24T15:22:28;5.35;;;1.77;;
14203;SDS011;7185;51.854;6.622;2022-08-24T15:25:14;3.13;;;1.55;;
14203;SDS011;7185;51.854;6.622;2022-08-24T15:27:55;4.53;;;1.73;;
14203;SDS011;7185;51.854;6.622;2022-08-24T15:30:29;2.63;;;1.40;;
14203;SDS011;7185;51.854;6.622;2022-08-24T15:33:04;3.70;;;1.55;;
14203;SDS011;7185;51.854;6.622;2022-08-24T15:35:40;5.85;;;1.58;;
14203;SDS011;7185;51.854;6.622;2022-08-24T15:38:21;5.85;;;1.60;;
14203;SDS011;7185;51.854;6.622;2022-08-24T15:41:03;9.55;;;1.73;;
14203;SDS011;7185;51.854;6.622;2022-08-24T15:43:38;5.68;;;2.00;;
14203;SDS011;7185;51.854;6.622;2022-08-24T15:46:15;5.30;;;1.70;;
14203;SDS011;7185;51.854;6.622;2022-08-24T15:48:50;5.07;;;1.70;;
14203;SDS011;7185;51.854;6.622;2022-08-24T15:51:30;4.93;;;1.60;;
14203;SDS011;7185;51.854;6.622;2022-08-24T15:54:13;3.63;;;1.73;;
14203;SDS011;7185;51.854;6.622;2022-08-24T15:56:49;3.65;;;1.65;;
14203;SDS011;7185;51.854;6.622;2022-08-24T16:01:57;4.57;;;2.00;;
14203;SDS011;7185;51.854;6.622;2022-08-24T16:04:59;3.65;;;1.70;;
14203;SDS011;7185;51.854;6.622;2022-08-24T16:07:57;4.03;;;1.70;;
14203;SDS011;7185;51.854;6.622;2022-08-24T16:10:41;2.67;;;1.70;;
14203;SDS011;7185;51.854;6.622;2022-08-24T16:13:20;3.35;;;2.00;;
14203;SDS011;7185;51.854;6.622;2022-08-24T16:15:59;4.25;;;1.83;;
14203;SDS011;7185;51.854;6.622;2022-08-24T16:18:46;3.60;;;1.83;;
14203;SDS011;7185;51.854;6.622;2022-08-24T16:21:21;5.30;;;1.80;;
14203;SDS011;7185;51.854;6.622;2022-08-24T16:23:59;4.18;;;1.75;;
14203;SDS011;7185;51.854;6.622;2022-08-24T16:29:49;3.33;;;1.60;;
14203;SDS011;7185;51.854;6.622;2022-08-24T16:32:25;7.35;;;2.15;;
14203;SDS011;7185;51.854;6.622;2022-08-24T16:35:12;5.15;;;1.65;;
14203;SDS011;7185;51.854;6.622;2022-08-24T16:37:47;5.00;;;1.80;;
14203;SDS011;7185;51.854;6.622;2022-08-24T16:40:19;2.50;;;1.50;;
14203;SDS011;7185;51.854;6.622;2022-08-24T16:42:51;4.95;;;1.50;;
14203;SDS011;7185;51.854;6.622;2022-08-24T16:45:26;3.60;;;1.83;;
14203;SDS011;7185;51.854;6.622;2022-08-24T16:47:58;4.45;;;1.92;;
14203;SDS011;7185;51.854;6.622;2022-08-24T16:50:30;4.22;;;1.75;;
14203;SDS011;7185;51.854;6.622;2022-08-24T16:53:01;3.70;;;1.90;;
14203;SDS011;7185;51.854;6.622;2022-08-24T16:55:33;3.67;;;1.85;;
14203;SDS011;7185;51.854;6.622;2022-08-24T16:58:05;6.05;;;1.95;;
14203;SDS011;7185;51.854;6.622;2022-08-24T17:00:38;4.32;;;1.80;;
14203;SDS011;7185;51.854;6.622;2022-08-24T17:03:09;3.10;;;1.60;;
14203;SDS011;7185;51.854;6.622;2022-08-24T17:05:41;3.83;;;1.90;;
14203;SDS011;7185;51.854;6.622;2022-08-24T17:08:13;4.05;;;1.58;;
14203;SDS011;7185;51.854;6.622;2022-08-24T17:10:45;5.03;;;1.50;;
14203;SDS011;7185;51.854;6.622;2022-08-24T17:13:17;4.78;;;1.83;;
14203;SDS011;7185;51.854;6.622;2022-08-24T17:15:50;3.47;;;1.65;;
14203;SDS011;7185;51.854;6.622;2022-08-24T17:18:22;6.03;;;1.77;;
14203;SDS011;7185;51.854;6.622;2022-08-24T17:20:54;3.53;;;1.80;;
14203;SDS011;7185;51.854;6.622;2022-08-24T17:23:26;7.28;;;2.00;;